Terminal Aerodrome Forecast
Issued by NWS

Current Version | Previous Version | Graphics & Text | Print | Product List | Glossary On
Versions: 1 2 3 4 5 6 7 8 9 10 11 12 13 14 15 16 17 18 19 20 21 22
813
FTUS41 KRLX 051720
TAFCKB
TAF
KCKB 051720Z 0518/0618 30008KT P6SM FEW035 FEW150
     FM060200 00000KT P6SM FEW150
     FM061400 21006KT P6SM BKN120=

USA.gov is the U.S. government's official web portal to all federal, state and local government web resources and services.